sensor_id;sensor_type;location;lat;lon;timestamp;temperature;humidity
5779;DHT22;2916;49.798;10.022;2023-12-14T00:00:30;5.00;99.90
5779;DHT22;2916;49.798;10.022;2023-12-14T00:02:57;5.00;99.90
5779;DHT22;2916;49.798;10.022;2023-12-14T00:05:24;5.00;99.90
5779;DHT22;2916;49.798;10.022;2023-12-14T00:07:53;4.90;99.90
5779;DHT22;2916;49.798;10.022;2023-12-14T00:10:20;4.90;99.90
5779;DHT22;2916;49.798;10.022;2023-12-14T00:12:46;4.90;99.90
5779;DHT22;2916;49.798;10.022;2023-12-14T00:15:14;4.90;99.90
5779;DHT22;2916;49.798;10.022;2023-12-14T00:17:41;4.90;99.90
5779;DHT22;2916;49.798;10.022;2023-12-14T00:20:09;4.90;99.90
5779;DHT22;2916;49.798;10.022;2023-12-14T00:22:36;5.00;99.90
5779;DHT22;2916;49.798;10.022;2023-12-14T00:25:05;5.00;99.90
5779;DHT22;2916;49.798;10.022;2023-12-14T00:27:32;5.00;99.90
5779;DHT22;2916;49.798;10.022;2023-12-14T00:29:59;5.00;99.90
5779;DHT22;2916;49.798;10.022;2023-12-14T00:32:26;5.00;99.90
5779;DHT22;2916;49.798;10.022;2023-12-14T00:34:52;4.90;99.90
5779;DHT22;2916;49.798;10.022;2023-12-14T00:37:19;4.90;99.90
5779;DHT22;2916;49.798;10.022;2023-12-14T00:39:46;4.80;99.90
5779;DHT22;2916;49.798;10.022;2023-12-14T00:42:15;4.80;99.90
5779;DHT22;2916;49.798;10.022;2023-12-14T00:44:41;4.80;99.90
5779;DHT22;2916;49.798;10.022;2023-12-14T00:47:08;4.70;99.90
5779;DHT22;2916;49.798;10.022;2023-12-14T00:49:35;4.70;99.90
5779;DHT22;2916;49.798;10.022;2023-12-14T00:52:02;4.70;99.90
5779;DHT22;2916;49.798;10.022;2023-12-14T00:54:31;4.60;99.90
5779;DHT22;2916;49.798;10.022;2023-12-14T00:56:58;4.60;99.90
5779;DHT22;2916;49.798;10.022;2023-12-14T00:59:26;4.60;99.90
5779;DHT22;2916;49.798;10.022;2023-12-14T01:01:53;4.50;99.90
5779;DHT22;2916;49.798;10.022;2023-12-14T01:04:19;4.60;99.90
5779;DHT22;2916;49.798;10.022;2023-12-14T01:06:46;4.50;99.90
5779;DHT22;2916;49.798;10.022;2023-12-14T01:09:13;4.50;99.90
5779;DHT22;2916;49.798;10.022;2023-12-14T01:11:40;4.60;99.90
5779;DHT22;2916;49.798;10.022;2023-12-14T01:14:07;4.60;99.90
5779;DHT22;2916;49.798;10.022;2023-12-14T01:16:35;4.60;99.90
5779;DHT22;2916;49.798;10.022;2023-12-14T01:19:02;4.60;99.90
5779;DHT22;2916;49.798;10.022;2023-12-14T01:21:31;4.60;99.90
5779;DHT22;2916;49.798;10.022;2023-12-14T01:23:58;4.60;99.90
5779;DHT22;2916;49.798;10.022;2023-12-14T01:26:26;4.60;99.90
5779;DHT22;2916;49.798;10.022;2023-12-14T01:28:53;4.50;99.90
5779;DHT22;2916;49.798;10.022;2023-12-14T01:31:20;4.40;99.90
5779;DHT22;2916;49.798;10.022;2023-12-14T01:33:50;4.30;99.90
5779;DHT22;2916;49.798;10.022;2023-12-14T01:36:20;4.20;99.90
5779;DHT22;2916;49.798;10.022;2023-12-14T01:38:48;4.20;99.90
5779;DHT22;2916;49.798;10.022;2023-12-14T01:41:14;4.30;99.90
5779;DHT22;2916;49.798;10.022;2023-12-14T01:43:42;4.20;99.90
5779;DHT22;2916;49.798;10.022;2023-12-14T01:46:09;4.20;99.90
5779;DHT22;2916;49.798;10.022;2023-12-14T01:48:36;4.20;99.90
5779;DHT22;2916;49.798;10.022;2023-12-14T01:51:04;4.20;99.90
5779;DHT22;2916;49.798;10.022;2023-12-14T01:53:31;4.10;99.90
5779;DHT22;2916;49.798;10.022;2023-12-14T01:55:58;4.10;99.90
5779;DHT22;2916;49.798;10.022;2023-12-14T01:58:25;4.10;99.90
5779;DHT22;2916;49.798;10.022;2023-12-14T02:00:56;4.10;99.90
5779;DHT22;2916;49.798;10.022;2023-12-14T02:03:25;4.10;99.90
5779;DHT22;2916;49.798;10.022;2023-12-14T02:05:52;4.10;99.90
5779;DHT22;2916;49.798;10.022;2023-12-14T02:08:20;4.10;99.90
5779;DHT22;2916;49.798;10.022;2023-12-14T02:10:47;4.10;99.90
5779;DHT22;2916;49.798;10.022;2023-12-14T02:13:14;4.20;99.90
5779;DHT22;2916;49.798;10.022;2023-12-14T02:15:41;4.20;99.90
5779;DHT22;2916;49.798;10.022;2023-12-14T02:18:08;4.10;99.90
5779;DHT22;2916;49.798;10.022;2023-12-14T02:20:35;4.10;99.90
5779;DHT22;2916;49.798;10.022;2023-12-14T02:23:04;4.10;99.90
5779;DHT22;2916;49.798;10.022;2023-12-14T02:25:31;4.10;99.90
5779;DHT22;2916;49.798;10.022;2023-12-14T02:27:58;4.20;99.90
5779;DHT22;2916;49.798;10.022;2023-12-14T02:30:25;4.20;99.90
5779;DHT22;2916;49.798;10.022;2023-12-14T02:32:51;4.30;99.90
5779;DHT22;2916;49.798;10.022;2023-12-14T02:35:18;4.30;99.90
5779;DHT22;2916;49.798;10.022;2023-12-14T02:37:45;4.30;99.90
5779;DHT22;2916;49.798;10.022;2023-12-14T02:40:14;4.20;99.90
5779;DHT22;2916;49.798;10.022;2023-12-14T02:42:40;4.30;99.90
5779;DHT22;2916;49.798;10.022;2023-12-14T02:45:08;4.40;99.90
5779;DHT22;2916;49.798;10.022;2023-12-14T02:47:35;4.40;99.90
5779;DHT22;2916;49.798;10.022;2023-12-14T02:50:03;4.50;99.90
5779;DHT22;2916;49.798;10.022;2023-12-14T02:52:30;4.50;99.90
5779;DHT22;2916;49.798;10.022;2023-12-14T02:54:57;4.50;99.90
5779;DHT22;2916;49.798;10.022;2023-12-14T02:57:25;4.50;99.90
5779;DHT22;2916;49.798;10.022;2023-12-14T02:59:52;4.50;99.90
5779;DHT22;2916;49.798;10.022;2023-12-14T03:02:19;4.50;99.90
5779;DHT22;2916;49.798;10.022;2023-12-14T03:04:46;4.50;99.90
5779;DHT22;2916;49.798;10.022;2023-12-14T03:07:13;4.60;99.90
5779;DHT22;2916;49.798;10.022;2023-12-14T03:09:40;4.70;99.90
5779;DHT22;2916;49.798;10.022;2023-12-14T03:12:09;4.70;99.90
5779;DHT22;2916;49.798;10.022;2023-12-14T03:14:38;4.80;99.90
5779;DHT22;2916;49.798;10.022;2023-12-14T03:17:06;4.90;99.90
5779;DHT22;2916;49.798;10.022;2023-12-14T03:19:38;4.90;99.90
5779;DHT22;2916;49.798;10.022;2023-12-14T03:22:05;4.90;99.90
5779;DHT22;2916;49.798;10.022;2023-12-14T03:24:32;5.00;99.90
5779;DHT22;2916;49.798;10.022;2023-12-14T03:26:59;5.00;99.90
5779;DHT22;2916;49.798;10.022;2023-12-14T03:29:27;5.00;99.90
5779;DHT22;2916;49.798;10.022;2023-12-14T03:31:55;5.00;99.90
5779;DHT22;2916;49.798;10.022;2023-12-14T03:34:23;5.10;99.90
5779;DHT22;2916;49.798;10.022;2023-12-14T03:36:50;5.10;99.90
5779;DHT22;2916;49.798;10.022;2023-12-14T03:39:16;5.10;99.90
5779;DHT22;2916;49.798;10.022;2023-12-14T03:41:43;5.00;99.90
5779;DHT22;2916;49.798;10.022;2023-12-14T03:44:10;5.10;99.90
5779;DHT22;2916;49.798;10.022;2023-12-14T03:46:37;5.10;99.90
5779;DHT22;2916;49.798;10.022;2023-12-14T03:49:05;5.10;99.90
5779;DHT22;2916;49.798;10.022;2023-12-14T03:51:32;5.10;99.90
5779;DHT22;2916;49.798;10.022;2023-12-14T03:53:59;5.00;99.90
5779;DHT22;2916;49.798;10.022;2023-12-14T03:56:26;5.10;99.90
5779;DHT22;2916;49.798;10.022;2023-12-14T03:58:53;5.20;99.90
5779;DHT22;2916;49.798;10.022;2023-12-14T04:01:20;5.20;99.90
5779;DHT22;2916;49.798;10.022;2023-12-14T04:03:47;5.20;99.90
5779;DHT22;2916;49.798;10.022;2023-12-14T04:06:16;5.30;99.90
5779;DHT22;2916;49.798;10.022;2023-12-14T04:08:43;5.30;99.90
5779;DHT22;2916;49.798;10.022;2023-12-14T04:11:10;5.20;99.90
5779;DHT22;2916;49.798;10.022;2023-12-14T04:13:39;5.30;99.90
5779;DHT22;2916;49.798;10.022;2023-12-14T04:16:06;5.30;99.90
5779;DHT22;2916;49.798;10.022;2023-12-14T04:18:33;5.30;99.90
5779;DHT22;2916;49.798;10.022;2023-12-14T04:21:00;5.30;99.90
5779;DHT22;2916;49.798;10.022;2023-12-14T04:23:28;5.30;99.90
5779;DHT22;2916;49.798;10.022;2023-12-14T04:25:55;5.30;99.90
5779;DHT22;2916;49.798;10.022;2023-12-14T04:28:22;5.30;99.90
5779;DHT22;2916;49.798;10.022;2023-12-14T04:30:49;5.30;99.90
5779;DHT22;2916;49.798;10.022;2023-12-14T04:33:16;5.30;99.90
5779;DHT22;2916;49.798;10.022;2023-12-14T04:35:43;5.30;99.90
5779;DHT22;2916;49.798;10.022;2023-12-14T04:38:10;5.20;99.90
5779;DHT22;2916;49.798;10.022;2023-12-14T04:40:38;5.20;99.90
5779;DHT22;2916;49.798;10.022;2023-12-14T04:43:05;5.20;99.90
5779;DHT22;2916;49.798;10.022;2023-12-14T04:45:32;5.10;99.90
5779;DHT22;2916;49.798;10.022;2023-12-14T04:47:59;5.10;99.90
5779;DHT22;2916;49.798;10.022;2023-12-14T04:50:26;5.10;99.90
5779;DHT22;2916;49.798;10.022;2023-12-14T04:52:53;5.10;99.90
5779;DHT22;2916;49.798;10.022;2023-12-14T04:55:20;5.00;99.90
5779;DHT22;2916;49.798;10.022;2023-12-14T04:57:48;5.10;99.90
5779;DHT22;2916;49.798;10.022;2023-12-14T05:00:15;5.20;99.90
5779;DHT22;2916;49.798;10.022;2023-12-14T05:02:46;5.20;99.90
5779;DHT22;2916;49.798;10.022;2023-12-14T05:05:14;5.20;99.90
5779;DHT22;2916;49.798;10.022;2023-12-14T05:07:41;5.20;99.90
5779;DHT22;2916;49.798;10.022;2023-12-14T05:10:08;5.30;99.90
5779;DHT22;2916;49.798;10.022;2023-12-14T05:12:36;5.40;99.90
5779;DHT22;2916;49.798;10.022;2023-12-14T05:15:05;5.40;99.90
5779;DHT22;2916;49.798;10.022;2023-12-14T05:17:33;5.40;99.90
5779;DHT22;2916;49.798;10.022;2023-12-14T05:20:00;5.40;99.90
5779;DHT22;2916;49.798;10.022;2023-12-14T05:22:27;5.40;99.90
5779;DHT22;2916;49.798;10.022;2023-12-14T05:24:54;5.40;99.90
5779;DHT22;2916;49.798;10.022;2023-12-14T05:27:21;5.40;99.90
5779;DHT22;2916;49.798;10.022;2023-12-14T05:29:48;5.40;99.90
5779;DHT22;2916;49.798;10.022;2023-12-14T05:32:16;5.50;99.90
5779;DHT22;2916;49.798;10.022;2023-12-14T05:34:43;5.40;99.90
5779;DHT22;2916;49.798;10.022;2023-12-14T05:37:10;5.40;99.90
5779;DHT22;2916;49.798;10.022;2023-12-14T05:39:37;5.50;99.90
5779;DHT22;2916;49.798;10.022;2023-12-14T05:42:07;5.40;99.90
5779;DHT22;2916;49.798;10.022;2023-12-14T05:44:34;5.50;99.90
5779;DHT22;2916;49.798;10.022;2023-12-14T05:47:01;5.60;99.90
5779;DHT22;2916;49.798;10.022;2023-12-14T05:49:29;5.50;99.90
5779;DHT22;2916;49.798;10.022;2023-12-14T05:51:58;5.50;99.90
5779;DHT22;2916;49.798;10.022;2023-12-14T05:54:25;5.50;99.90
5779;DHT22;2916;49.798;10.022;2023-12-14T05:56:51;5.50;99.90
5779;DHT22;2916;49.798;10.022;2023-12-14T05:59:18;5.50;99.90
5779;DHT22;2916;49.798;10.022;2023-12-14T06:01:45;5.50;99.90
5779;DHT22;2916;49.798;10.022;2023-12-14T06:04:13;5.50;99.90
5779;DHT22;2916;49.798;10.022;2023-12-14T06:06:41;5.50;99.90
5779;DHT22;2916;49.798;10.022;2023-12-14T06:09:08;5.50;99.90
5779;DHT22;2916;49.798;10.022;2023-12-14T06:11:35;5.60;99.90
5779;DHT22;2916;49.798;10.022;2023-12-14T06:14:03;5.50;99.90
5779;DHT22;2916;49.798;10.022;2023-12-14T06:16:29;5.50;99.90
5779;DHT22;2916;49.798;10.022;2023-12-14T06:18:56;5.50;99.90
5779;DHT22;2916;49.798;10.022;2023-12-14T06:21:23;5.40;99.90
5779;DHT22;2916;49.798;10.022;2023-12-14T06:23:53;5.40;99.90
5779;DHT22;2916;49.798;10.022;2023-12-14T06:26:20;5.40;99.90
5779;DHT22;2916;49.798;10.022;2023-12-14T06:28:47;5.40;99.90
5779;DHT22;2916;49.798;10.022;2023-12-14T06:31:14;5.50;99.90
5779;DHT22;2916;49.798;10.022;2023-12-14T06:33:41;5.40;99.90
5779;DHT22;2916;49.798;10.022;2023-12-14T06:36:09;5.40;99.90
5779;DHT22;2916;49.798;10.022;2023-12-14T06:38:38;5.40;99.90
5779;DHT22;2916;49.798;10.022;2023-12-14T06:41:06;5.40;99.90
5779;DHT22;2916;49.798;10.022;2023-12-14T06:43:34;5.40;99.90
5779;DHT22;2916;49.798;10.022;2023-12-14T06:46:01;5.30;99.90
5779;DHT22;2916;49.798;10.022;2023-12-14T06:48:28;5.30;99.90
5779;DHT22;2916;49.798;10.022;2023-12-14T06:50:54;5.40;99.90
5779;DHT22;2916;49.798;10.022;2023-12-14T06:53:22;5.50;99.90
5779;DHT22;2916;49.798;10.022;2023-12-14T06:55:48;5.60;99.90
5779;DHT22;2916;49.798;10.022;2023-12-14T06:58:17;5.60;99.90
5779;DHT22;2916;49.798;10.022;2023-12-14T07:00:44;5.50;99.90
5779;DHT22;2916;49.798;10.022;2023-12-14T07:03:11;5.40;99.90
5779;DHT22;2916;49.798;10.022;2023-12-14T07:05:38;5.40;99.90
5779;DHT22;2916;49.798;10.022;2023-12-14T07:08:05;5.40;99.90
5779;DHT22;2916;49.798;10.022;2023-12-14T07:10:32;5.50;99.90
5779;DHT22;2916;49.798;10.022;2023-12-14T07:12:59;5.50;99.90
5779;DHT22;2916;49.798;10.022;2023-12-14T07:15:27;5.60;99.90
5779;DHT22;2916;49.798;10.022;2023-12-14T07:17:55;5.60;99.90
5779;DHT22;2916;49.798;10.022;2023-12-14T07:20:21;5.50;99.90
5779;DHT22;2916;49.798;10.022;2023-12-14T07:22:48;5.50;99.90
5779;DHT22;2916;49.798;10.022;2023-12-14T07:25:15;5.60;99.90
5779;DHT22;2916;49.798;10.022;2023-12-14T07:27:42;5.60;99.90
5779;DHT22;2916;49.798;10.022;2023-12-14T07:30:10;5.70;99.90
5779;DHT22;2916;49.798;10.022;2023-12-14T07:32:38;5.60;99.90
5779;DHT22;2916;49.798;10.022;2023-12-14T07:35:06;5.70;99.90
5779;DHT22;2916;49.798;10.022;2023-12-14T07:37:34;5.60;99.90
5779;DHT22;2916;49.798;10.022;2023-12-14T07:40:00;5.60;99.90
5779;DHT22;2916;49.798;10.022;2023-12-14T07:42:28;5.60;99.90
5779;DHT22;2916;49.798;10.022;2023-12-14T07:44:55;5.60;99.90
5779;DHT22;2916;49.798;10.022;2023-12-14T07:47:22;5.70;99.90
5779;DHT22;2916;49.798;10.022;2023-12-14T07:49:50;5.70;99.90
5779;DHT22;2916;49.798;10.022;2023-12-14T07:52:17;5.80;99.90
5779;DHT22;2916;49.798;10.022;2023-12-14T07:54:44;5.80;99.90
5779;DHT22;2916;49.798;10.022;2023-12-14T07:57:11;5.90;99.90
5779;DHT22;2916;49.798;10.022;2023-12-14T07:59:38;5.90;99.90
5779;DHT22;2916;49.798;10.022;2023-12-14T08:02:05;5.90;99.90
5779;DHT22;2916;49.798;10.022;2023-12-14T08:04:32;5.90;99.90
5779;DHT22;2916;49.798;10.022;2023-12-14T08:07:01;6.00;99.90
5779;DHT22;2916;49.798;10.022;2023-12-14T08:09:28;5.90;99.90
5779;DHT22;2916;49.798;10.022;2023-12-14T08:11:55;5.90;99.90
5779;DHT22;2916;49.798;10.022;2023-12-14T08:14:22;6.00;99.90
5779;DHT22;2916;49.798;10.022;2023-12-14T08:16:49;6.00;99.90
5779;DHT22;2916;49.798;10.022;2023-12-14T08:19:16;6.00;99.90
5779;DHT22;2916;49.798;10.022;2023-12-14T08:21:42;6.00;99.90
5779;DHT22;2916;49.798;10.022;2023-12-14T08:24:11;6.10;99.90
5779;DHT22;2916;49.798;10.022;2023-12-14T08:26:38;6.10;99.90
5779;DHT22;2916;49.798;10.022;2023-12-14T08:29:04;6.10;99.90
5779;DHT22;2916;49.798;10.022;2023-12-14T08:31:31;6.10;99.90
5779;DHT22;2916;49.798;10.022;2023-12-14T08:33:58;6.20;99.90
5779;DHT22;2916;49.798;10.022;2023-12-14T08:36:25;6.20;99.90
5779;DHT22;2916;49.798;10.022;2023-12-14T08:38:52;6.30;99.90
5779;DHT22;2916;49.798;10.022;2023-12-14T08:41:21;6.30;99.90
5779;DHT22;2916;49.798;10.022;2023-12-14T08:43:48;6.30;99.90
5779;DHT22;2916;49.798;10.022;2023-12-14T08:46:15;6.30;99.90
5779;DHT22;2916;49.798;10.022;2023-12-14T08:48:42;6.40;99.90
5779;DHT22;2916;49.798;10.022;2023-12-14T08:51:08;6.40;99.90
5779;DHT22;2916;49.798;10.022;2023-12-14T08:53:35;6.40;99.90
5779;DHT22;2916;49.798;10.022;2023-12-14T08:56:03;6.50;99.90
5779;DHT22;2916;49.798;10.022;2023-12-14T08:58:31;6.50;99.90
5779;DHT22;2916;49.798;10.022;2023-12-14T09:00:58;6.50;99.90
5779;DHT22;2916;49.798;10.022;2023-12-14T09:03:25;6.50;99.90
5779;DHT22;2916;49.798;10.022;2023-12-14T09:05:52;6.60;99.90
5779;DHT22;2916;49.798;10.022;2023-12-14T09:08:19;6.70;99.90
5779;DHT22;2916;49.798;10.022;2023-12-14T09:10:46;6.70;99.90
5779;DHT22;2916;49.798;10.022;2023-12-14T09:13:13;6.70;99.90
5779;DHT22;2916;49.798;10.022;2023-12-14T09:15:41;6.70;99.90
5779;DHT22;2916;49.798;10.022;2023-12-14T09:18:08;6.70;99.90
5779;DHT22;2916;49.798;10.022;2023-12-14T09:20:35;6.70;99.90
5779;DHT22;2916;49.798;10.022;2023-12-14T09:23:03;6.70;99.90
5779;DHT22;2916;49.798;10.022;2023-12-14T09:25:29;6.70;99.90
5779;DHT22;2916;49.798;10.022;2023-12-14T09:27:58;6.80;99.90
5779;DHT22;2916;49.798;10.022;2023-12-14T09:30:25;6.80;99.90
5779;DHT22;2916;49.798;10.022;2023-12-14T09:32:53;6.80;99.90
5779;DHT22;2916;49.798;10.022;2023-12-14T09:35:20;6.80;99.90
5779;DHT22;2916;49.798;10.022;2023-12-14T09:37:47;6.90;99.90
5779;DHT22;2916;49.798;10.022;2023-12-14T09:40:15;6.80;99.90
5779;DHT22;2916;49.798;10.022;2023-12-14T09:42:42;6.90;99.90
5779;DHT22;2916;49.798;10.022;2023-12-14T09:45:09;6.90;99.90
5779;DHT22;2916;49.798;10.022;2023-12-14T09:47:37;7.00;99.90
5779;DHT22;2916;49.798;10.022;2023-12-14T09:50:07;7.00;99.90
5779;DHT22;2916;49.798;10.022;2023-12-14T09:52:34;7.10;99.90
5779;DHT22;2916;49.798;10.022;2023-12-14T09:55:01;7.10;99.90
5779;DHT22;2916;49.798;10.022;2023-12-14T09:57:29;7.10;99.90
5779;DHT22;2916;49.798;10.022;2023-12-14T09:59:56;7.10;99.90
5779;DHT22;2916;49.798;10.022;2023-12-14T10:02:25;7.10;99.90
5779;DHT22;2916;49.798;10.022;2023-12-14T10:04:53;7.20;99.90
5779;DHT22;2916;49.798;10.022;2023-12-14T10:07:21;7.20;99.90
5779;DHT22;2916;49.798;10.022;2023-12-14T10:09:48;7.30;99.90
5779;DHT22;2916;49.798;10.022;2023-12-14T10:12:15;7.30;99.90
5779;DHT22;2916;49.798;10.022;2023-12-14T10:14:42;7.30;99.90
5779;DHT22;2916;49.798;10.022;2023-12-14T10:17:18;7.40;99.90
5779;DHT22;2916;49.798;10.022;2023-12-14T10:19:46;7.40;99.90
5779;DHT22;2916;49.798;10.022;2023-12-14T10:22:14;7.50;99.90
5779;DHT22;2916;49.798;10.022;2023-12-14T10:24:44;7.50;99.90
5779;DHT22;2916;49.798;10.022;2023-12-14T10:27:11;7.50;99.90
5779;DHT22;2916;49.798;10.022;2023-12-14T10:29:38;7.50;99.90
5779;DHT22;2916;49.798;10.022;2023-12-14T10:32:07;7.60;99.90
5779;DHT22;2916;49.798;10.022;2023-12-14T10:34:36;7.60;99.90
5779;DHT22;2916;49.798;10.022;2023-12-14T10:37:05;7.60;99.90
5779;DHT22;2916;49.798;10.022;2023-12-14T10:39:33;7.50;99.90
5779;DHT22;2916;49.798;10.022;2023-12-14T10:42:03;7.60;99.90
5779;DHT22;2916;49.798;10.022;2023-12-14T10:44:30;7.60;99.90
5779;DHT22;2916;49.798;10.022;2023-12-14T10:47:00;7.60;99.90
5779;DHT22;2916;49.798;10.022;2023-12-14T10:49:28;7.60;99.90
5779;DHT22;2916;49.798;10.022;2023-12-14T10:51:57;7.60;99.90
5779;DHT22;2916;49.798;10.022;2023-12-14T10:54:26;7.60;99.90
5779;DHT22;2916;49.798;10.022;2023-12-14T10:56:55;7.60;99.90
5779;DHT22;2916;49.798;10.022;2023-12-14T10:59:25;7.70;99.90
5779;DHT22;2916;49.798;10.022;2023-12-14T11:01:52;7.60;99.90
5779;DHT22;2916;49.798;10.022;2023-12-14T11:04:21;7.60;99.90
5779;DHT22;2916;49.798;10.022;2023-12-14T11:06:48;7.60;99.90
5779;DHT22;2916;49.798;10.022;2023-12-14T11:09:17;7.60;99.90
5779;DHT22;2916;49.798;10.022;2023-12-14T11:11:55;7.70;99.90
5779;DHT22;2916;49.798;10.022;2023-12-14T11:14:24;7.70;99.90
5779;DHT22;2916;49.798;10.022;2023-12-14T11:16:55;7.70;99.90
5779;DHT22;2916;49.798;10.022;2023-12-14T11:19:28;7.70;99.90
5779;DHT22;2916;49.798;10.022;2023-12-14T11:22:11;7.70;99.90
5779;DHT22;2916;49.798;10.022;2023-12-14T11:24:42;7.60;99.90
5779;DHT22;2916;49.798;10.022;2023-12-14T11:27:11;7.60;99.90
5779;DHT22;2916;49.798;10.022;2023-12-14T11:29:39;7.60;99.90
5779;DHT22;2916;49.798;10.022;2023-12-14T11:32:07;7.60;99.90
5779;DHT22;2916;49.798;10.022;2023-12-14T11:34:34;7.70;99.90
5779;DHT22;2916;49.798;10.022;2023-12-14T11:37:02;7.70;99.90
5779;DHT22;2916;49.798;10.022;2023-12-14T11:39:30;7.60;99.90
5779;DHT22;2916;49.798;10.022;2023-12-14T11:42:01;7.60;99.90
5779;DHT22;2916;49.798;10.022;2023-12-14T11:44:28;7.60;99.90
5779;DHT22;2916;49.798;10.022;2023-12-14T11:46:57;7.60;99.90
5779;DHT22;2916;49.798;10.022;2023-12-14T11:49:25;7.60;99.90
5779;DHT22;2916;49.798;10.022;2023-12-14T11:51:53;7.60;99.90
5779;DHT22;2916;49.798;10.022;2023-12-14T11:54:21;7.60;99.90
5779;DHT22;2916;49.798;10.022;2023-12-14T11:56:49;7.70;99.90
5779;DHT22;2916;49.798;10.022;2023-12-14T11:59:16;7.60;99.90
5779;DHT22;2916;49.798;10.022;2023-12-14T12:01:59;7.60;99.90
5779;DHT22;2916;49.798;10.022;2023-12-14T12:04:27;7.60;99.90
5779;DHT22;2916;49.798;10.022;2023-12-14T12:07:02;7.60;99.90
5779;DHT22;2916;49.798;10.022;2023-12-14T12:09:34;7.60;99.90
5779;DHT22;2916;49.798;10.022;2023-12-14T12:12:00;7.60;99.90
5779;DHT22;2916;49.798;10.022;2023-12-14T12:14:27;7.60;99.90
5779;DHT22;2916;49.798;10.022;2023-12-14T12:16:55;7.60;99.90
5779;DHT22;2916;49.798;10.022;2023-12-14T12:19:23;7.60;99.90
5779;DHT22;2916;49.798;10.022;2023-12-14T12:21:50;7.60;99.90
5779;DHT22;2916;49.798;10.022;2023-12-14T12:24:17;7.60;99.90
5779;DHT22;2916;49.798;10.022;2023-12-14T12:26:44;7.60;99.90
5779;DHT22;2916;49.798;10.022;2023-12-14T12:29:11;7.60;99.90
5779;DHT22;2916;49.798;10.022;2023-12-14T12:31:37;7.60;99.90
5779;DHT22;2916;49.798;10.022;2023-12-14T12:34:05;7.60;99.90
5779;DHT22;2916;49.798;10.022;2023-12-14T12:36:34;7.60;99.90
5779;DHT22;2916;49.798;10.022;2023-12-14T12:39:01;7.60;99.90
5779;DHT22;2916;49.798;10.022;2023-12-14T12:41:28;7.60;99.90
5779;DHT22;2916;49.798;10.022;2023-12-14T12:43:55;7.60;99.90
5779;DHT22;2916;49.798;10.022;2023-12-14T12:46:23;7.60;99.90
5779;DHT22;2916;49.798;10.022;2023-12-14T12:48:50;7.60;99.90
5779;DHT22;2916;49.798;10.022;2023-12-14T12:51:17;7.60;99.90
5779;DHT22;2916;49.798;10.022;2023-12-14T12:53:45;7.60;99.90
5779;DHT22;2916;49.798;10.022;2023-12-14T12:56:12;7.60;99.90
5779;DHT22;2916;49.798;10.022;2023-12-14T12:58:39;7.60;99.90
5779;DHT22;2916;49.798;10.022;2023-12-14T13:01:06;7.60;99.90
5779;DHT22;2916;49.798;10.022;2023-12-14T13:03:33;7.60;99.90
5779;DHT22;2916;49.798;10.022;2023-12-14T13:06:00;7.60;99.90
5779;DHT22;2916;49.798;10.022;2023-12-14T13:08:27;7.50;99.90
5779;DHT22;2916;49.798;10.022;2023-12-14T13:10:55;7.50;99.90
5779;DHT22;2916;49.798;10.022;2023-12-14T13:13:22;7.60;99.90
5779;DHT22;2916;49.798;10.022;2023-12-14T13:15:49;7.60;99.90
5779;DHT22;2916;49.798;10.022;2023-12-14T13:18:16;7.60;99.90
5779;DHT22;2916;49.798;10.022;2023-12-14T13:20:43;7.60;99.90
5779;DHT22;2916;49.798;10.022;2023-12-14T13:23:10;7.60;99.90
5779;DHT22;2916;49.798;10.022;2023-12-14T13:25:37;7.60;99.90
5779;DHT22;2916;49.798;10.022;2023-12-14T13:28:05;7.60;99.90
5779;DHT22;2916;49.798;10.022;2023-12-14T13:30:32;7.60;99.90
5779;DHT22;2916;49.798;10.022;2023-12-14T13:32:59;7.60;99.90
5779;DHT22;2916;49.798;10.022;2023-12-14T13:35:26;7.60;99.90
5779;DHT22;2916;49.798;10.022;2023-12-14T13:37:54;7.60;99.90
5779;DHT22;2916;49.798;10.022;2023-12-14T13:40:21;7.60;99.90
5779;DHT22;2916;49.798;10.022;2023-12-14T13:42:48;7.50;99.90
5779;DHT22;2916;49.798;10.022;2023-12-14T13:45:17;7.50;99.90
5779;DHT22;2916;49.798;10.022;2023-12-14T13:47:43;7.50;99.90
5779;DHT22;2916;49.798;10.022;2023-12-14T13:50:10;7.50;99.90
5779;DHT22;2916;49.798;10.022;2023-12-14T13:52:37;7.50;99.90
5779;DHT22;2916;49.798;10.022;2023-12-14T13:55:05;7.50;99.90
5779;DHT22;2916;49.798;10.022;2023-12-14T13:57:32;7.50;99.90
5779;DHT22;2916;49.798;10.022;2023-12-14T13:59:59;7.50;99.90
5779;DHT22;2916;49.798;10.022;2023-12-14T14:02:27;7.40;99.90
5779;DHT22;2916;49.798;10.022;2023-12-14T14:04:54;7.40;99.90
5779;DHT22;2916;49.798;10.022;2023-12-14T14:07:21;7.40;99.90
5779;DHT22;2916;49.798;10.022;2023-12-14T14:09:48;7.40;99.90
5779;DHT22;2916;49.798;10.022;2023-12-14T14:12:15;7.40;99.90
5779;DHT22;2916;49.798;10.022;2023-12-14T14:14:42;7.40;99.90
5779;DHT22;2916;49.798;10.022;2023-12-14T14:17:09;7.30;99.90
5779;DHT22;2916;49.798;10.022;2023-12-14T14:19:38;7.40;99.90
5779;DHT22;2916;49.798;10.022;2023-12-14T14:22:05;7.30;99.90
5779;DHT22;2916;49.798;10.022;2023-12-14T14:24:31;7.30;99.90
5779;DHT22;2916;49.798;10.022;2023-12-14T14:26:58;7.30;99.90
5779;DHT22;2916;49.798;10.022;2023-12-14T14:29:25;7.30;99.90
5779;DHT22;2916;49.798;10.022;2023-12-14T14:31:52;7.30;99.90
5779;DHT22;2916;49.798;10.022;2023-12-14T14:34:19;7.30;99.90
5779;DHT22;2916;49.798;10.022;2023-12-14T14:36:48;7.30;99.90
5779;DHT22;2916;49.798;10.022;2023-12-14T14:39:15;7.30;99.90
5779;DHT22;2916;49.798;10.022;2023-12-14T14:41:44;7.30;99.90
5779;DHT22;2916;49.798;10.022;2023-12-14T14:44:11;7.30;99.90
5779;DHT22;2916;49.798;10.022;2023-12-14T14:46:38;7.20;99.90
5779;DHT22;2916;49.798;10.022;2023-12-14T14:49:05;7.30;99.90
5779;DHT22;2916;49.798;10.022;2023-12-14T14:51:33;7.30;99.90
5779;DHT22;2916;49.798;10.022;2023-12-14T14:54:01;7.30;99.90
5779;DHT22;2916;49.798;10.022;2023-12-14T14:56:28;7.30;99.90
5779;DHT22;2916;49.798;10.022;2023-12-14T14:58:55;7.30;99.90
5779;DHT22;2916;49.798;10.022;2023-12-14T15:01:22;7.30;99.90
5779;DHT22;2916;49.798;10.022;2023-12-14T15:03:49;7.30;99.90
5779;DHT22;2916;49.798;10.022;2023-12-14T15:06:16;7.20;99.90
5779;DHT22;2916;49.798;10.022;2023-12-14T15:08:43;7.30;99.90
5779;DHT22;2916;49.798;10.022;2023-12-14T15:11:11;7.30;99.90
5779;DHT22;2916;49.798;10.022;2023-12-14T15:13:38;7.30;99.90
5779;DHT22;2916;49.798;10.022;2023-12-14T15:16:07;7.30;99.90
5779;DHT22;2916;49.798;10.022;2023-12-14T15:18:34;7.30;99.90
5779;DHT22;2916;49.798;10.022;2023-12-14T15:21:06;7.30;99.90
5779;DHT22;2916;49.798;10.022;2023-12-14T15:23:33;7.30;99.90
5779;DHT22;2916;49.798;10.022;2023-12-14T15:26:00;7.20;98.10
5779;DHT22;2916;49.798;10.022;2023-12-14T15:28:29;7.20;97.70
5779;DHT22;2916;49.798;10.022;2023-12-14T15:30:55;7.20;97.10
5779;DHT22;2916;49.798;10.022;2023-12-14T15:33:22;7.10;96.40
5779;DHT22;2916;49.798;10.022;2023-12-14T15:35:49;7.10;96.00
5779;DHT22;2916;49.798;10.022;2023-12-14T15:38:16;7.10;95.00
5779;DHT22;2916;49.798;10.022;2023-12-14T15:40:43;7.10;95.00
5779;DHT22;2916;49.798;10.022;2023-12-14T15:43:10;7.00;94.80
5779;DHT22;2916;49.798;10.022;2023-12-14T15:45:40;7.00;94.50
5779;DHT22;2916;49.798;10.022;2023-12-14T15:48:09;7.00;93.90
5779;DHT22;2916;49.798;10.022;2023-12-14T15:50:36;6.90;93.90
5779;DHT22;2916;49.798;10.022;2023-12-14T15:53:04;6.90;94.60
5779;DHT22;2916;49.798;10.022;2023-12-14T15:55:34;6.90;94.40
5779;DHT22;2916;49.798;10.022;2023-12-14T15:58:01;6.90;94.60
5779;DHT22;2916;49.798;10.022;2023-12-14T16:00:28;7.00;94.50
5779;DHT22;2916;49.798;10.022;2023-12-14T16:02:59;6.90;94.20